createdAt,value
2019-03-02T00:00:56.772Z,45.80
2019-03-02T00:03:26.151Z,46.63
2019-03-02T00:05:56.974Z,46.77
2019-03-02T00:08:26.411Z,47.00
2019-03-02T00:10:55.635Z,44.80
2019-03-02T00:13:26.715Z,44.60
2019-03-02T00:15:55.934Z,44.67
2019-03-02T00:18:25.888Z,44.13
2019-03-02T00:20:56.394Z,43.17
2019-03-02T00:23:25.708Z,43.40
2019-03-02T00:25:54.977Z,42.80
2019-03-02T00:28:24.306Z,42.27
2019-03-02T00:30:54.776Z,43.33
2019-03-02T00:33:24.986Z,44.55
2019-03-02T00:35:54.205Z,42.67
2019-03-02T00:38:23.480Z,42.73
2019-03-02T00:40:52.666Z,43.80
2019-03-02T00:43:23.706Z,42.43
2019-03-02T00:45:52.835Z,44.13
2019-03-02T00:48:22.085Z,44.37
2019-03-02T00:50:51.420Z,43.42
2019-03-02T00:53:20.648Z,43.90
2019-03-02T00:55:49.896Z,43.90
2019-03-02T00:58:19.082Z,41.60
2019-03-02T01:00:50.043Z,41.63
2019-03-02T01:03:19.212Z,43.07
2019-03-02T01:05:48.387Z,40.47
2019-03-02T01:08:18.676Z,43.37
2019-03-02T01:10:47.906Z,42.07
2019-03-02T01:13:19.822Z,41.70
2019-03-02T01:15:48.151Z,39.33
2019-03-02T01:18:17.350Z,40.13
2019-03-02T01:20:48.537Z,39.83
2019-03-02T01:23:17.790Z,41.47
2019-03-02T01:25:48.896Z,38.53
2019-03-02T01:28:18.064Z,39.90
2019-03-02T01:30:47.313Z,41.20
2019-03-02T01:33:16.512Z,38.75
2019-03-02T01:35:45.709Z,39.65
2019-03-02T01:38:15.704Z,41.43
2019-03-02T01:40:45.934Z,40.30
2019-03-02T01:43:15.277Z,38.23
2019-03-02T01:45:44.630Z,40.57
2019-03-02T01:48:13.855Z,38.63
2019-03-02T01:50:43.900Z,38.17
2019-03-02T01:53:14.203Z,35.80
2019-03-02T01:55:43.428Z,34.88
2019-03-02T01:58:12.672Z,35.03
2019-03-02T02:00:41.908Z,33.47
2019-03-02T02:03:12.111Z,37.15
2019-03-02T02:05:42.218Z,37.17
2019-03-02T02:08:11.925Z,36.50
2019-03-02T02:10:43.472Z,36.43
2019-03-02T02:13:12.193Z,34.80
2019-03-02T02:15:41.465Z,34.13
2019-03-02T02:18:10.667Z,33.47
2019-03-02T02:20:39.836Z,34.43
2019-03-02T02:23:09.880Z,34.60
2019-03-02T02:25:40.123Z,31.05
2019-03-02T02:28:09.374Z,33.20
2019-03-02T02:30:38.605Z,31.87
2019-03-02T02:33:07.785Z,29.70
2019-03-02T02:35:40.213Z,31.55
2019-03-02T02:38:11.297Z,31.27
2019-03-02T02:40:38.951Z,29.67
2019-03-02T02:43:08.140Z,28.15
2019-03-02T02:45:37.559Z,27.70
2019-03-02T02:48:06.813Z,30.50
2019-03-02T02:50:36.125Z,30.97
2019-03-02T02:53:06.866Z,30.95
2019-03-02T02:55:40.718Z,31.10
2019-03-02T02:58:07.216Z,33.02
2019-03-02T03:00:36.528Z,35.87
2019-03-02T03:03:05.714Z,34.48
2019-03-02T03:05:34.902Z,32.70
2019-03-02T03:08:04.205Z,30.80
2019-03-02T03:10:35.277Z,30.47
2019-03-02T03:13:04.691Z,33.30
2019-03-02T03:15:36.989Z,33.15
2019-03-02T03:18:07.042Z,33.50
2019-03-02T03:20:36.304Z,29.73
2019-03-02T03:23:05.521Z,29.63
2019-03-02T03:25:34.006Z,30.70
2019-03-02T03:28:03.161Z,25.60
2019-03-02T03:30:39.035Z,25.33
2019-03-02T03:33:02.725Z,23.75
2019-03-02T03:35:31.266Z,25.48
2019-03-02T03:38:00.586Z,24.77
2019-03-02T03:40:29.746Z,25.03
2019-03-02T03:43:03.334Z,25.10
2019-03-02T03:45:29.594Z,27.27
2019-03-02T03:47:58.864Z,24.45
2019-03-02T03:50:28.041Z,23.33
2019-03-02T03:52:56.641Z,24.45
2019-03-02T03:55:27.411Z,21.95
2019-03-02T03:58:00.429Z,23.25
2019-03-02T04:00:28.397Z,25.17
2019-03-02T04:02:57.018Z,28.38
2019-03-02T04:05:26.259Z,30.08
2019-03-02T04:07:55.669Z,32.58
2019-03-02T04:10:27.442Z,31.77
2019-03-02T04:13:03.722Z,30.48
2019-03-02T04:15:27.188Z,29.30
2019-03-02T04:17:56.413Z,27.85
2019-03-02T04:20:35.065Z,26.50
2019-03-02T04:23:07.581Z,26.45
2019-03-02T04:25:36.745Z,29.00
2019-03-02T04:28:06.343Z,26.87
2019-03-02T04:30:35.507Z,28.23
2019-03-02T04:33:06.067Z,28.20
2019-03-02T04:35:35.262Z,26.80
2019-03-02T04:38:04.488Z,26.50
2019-03-02T04:40:33.668Z,26.30
2019-03-02T04:43:02.923Z,26.23
2019-03-02T04:45:31.491Z,26.75
2019-03-02T04:48:03.369Z,26.85
2019-03-02T04:50:31.000Z,27.03
2019-03-02T04:53:00.300Z,28.12
2019-03-02T04:55:29.451Z,28.80
2019-03-02T04:57:57.998Z,28.45
2019-03-02T05:00:28.645Z,28.20
2019-03-02T05:02:57.362Z,27.62
2019-03-02T05:05:26.564Z,28.87
2019-03-02T05:07:55.213Z,25.52
2019-03-02T05:10:28.244Z,26.90
2019-03-02T05:12:54.755Z,27.13
2019-03-02T05:15:24.058Z,27.62
2019-03-02T05:17:52.472Z,27.52
2019-03-02T05:20:21.670Z,26.34
2019-03-02T05:22:50.706Z,26.42
2019-03-02T05:25:21.027Z,28.02
2019-03-02T05:27:49.576Z,28.73
2019-03-02T05:30:18.885Z,29.28
2019-03-02T05:32:47.868Z,33.55
2019-03-02T05:35:17.722Z,34.80
2019-03-02T05:37:46.263Z,32.53
2019-03-02T05:40:15.506Z,27.82
2019-03-02T05:42:48.624Z,28.15
2019-03-02T05:45:15.263Z,26.80
2019-03-02T05:47:43.827Z,27.45
2019-03-02T05:50:16.281Z,25.32
2019-03-02T05:52:44.828Z,25.48
2019-03-02T05:55:18.085Z,25.43
2019-03-02T05:57:44.187Z,25.27
2019-03-02T06:00:14.813Z,25.88
2019-03-02T06:02:43.290Z,27.25
2019-03-02T06:05:11.824Z,28.50
2019-03-02T06:07:40.300Z,27.05
2019-03-02T06:10:13.912Z,26.60
2019-03-02T06:12:42.612Z,27.05
2019-03-02T06:15:15.427Z,23.33
2019-03-02T06:17:43.988Z,22.90
2019-03-02T06:20:13.448Z,22.80
2019-03-02T06:22:42.105Z,25.13
2019-03-02T06:25:19.410Z,23.77
2019-03-02T06:27:47.084Z,29.43
2019-03-02T06:30:18.663Z,29.73
2019-03-02T06:32:47.250Z,29.13
2019-03-02T06:35:15.786Z,29.03
2019-03-02T06:37:44.271Z,24.80
2019-03-02T06:40:15.977Z,23.83
2019-03-02T06:42:45.674Z,24.33
2019-03-02T06:45:17.251Z,23.73
2019-03-02T06:47:45.840Z,24.37
2019-03-02T06:50:16.553Z,25.03
2019-03-02T06:52:45.085Z,24.47
2019-03-02T06:55:14.705Z,24.80
2019-03-02T06:57:46.262Z,25.27
2019-03-02T07:00:21.520Z,25.80
2019-03-02T07:02:50.057Z,26.83
2019-03-02T07:05:18.519Z,25.90
2019-03-02T07:07:47.092Z,26.00
2019-03-02T07:10:23.625Z,26.67
2019-03-02T07:12:54.077Z,26.17
2019-03-02T07:15:22.540Z,27.00
2019-03-02T07:18:06.462Z,29.87
2019-03-02T07:20:34.480Z,29.40
2019-03-02T07:23:02.961Z,26.33
2019-03-02T07:25:31.563Z,24.57
2019-03-02T07:28:01.907Z,25.20
2019-03-02T07:30:30.349Z,23.53
2019-03-02T07:32:59.018Z,20.57
2019-03-02T07:35:27.479Z,20.80
2019-03-02T07:37:55.947Z,19.43
2019-03-02T07:40:24.494Z,18.90
2019-03-02T07:42:53.019Z,21.57
2019-03-02T07:45:22.522Z,26.63
2019-03-02T07:47:51.038Z,25.47
2019-03-02T07:50:21.852Z,25.03
2019-03-02T07:52:53.050Z,22.57
2019-03-02T07:55:22.475Z,20.87
2019-03-02T07:57:51.189Z,20.57
2019-03-02T08:00:21.327Z,18.00
2019-03-02T08:02:49.859Z,18.90
2019-03-02T08:05:18.406Z,18.50
2019-03-02T08:07:47.097Z,18.50
2019-03-02T08:10:15.621Z,18.87
2019-03-02T08:12:44.134Z,17.33
2019-03-02T08:15:25.870Z,17.77
2019-03-02T08:17:54.506Z,18.53
2019-03-02T08:20:24.452Z,18.70
2019-03-02T08:22:53.281Z,21.70
2019-03-02T08:25:21.779Z,24.87
2019-03-02T08:27:51.453Z,22.67
2019-03-02T08:30:22.001Z,25.50
2019-03-02T08:32:54.121Z,24.37
2019-03-02T08:35:20.947Z,21.73
2019-03-02T08:37:49.469Z,26.63
2019-03-02T08:40:19.268Z,27.10
2019-03-02T08:42:48.712Z,33.77
2019-03-02T08:45:21.534Z,31.43
2019-03-02T08:47:50.114Z,32.93
2019-03-02T08:50:19.774Z,35.07
2019-03-02T08:52:48.477Z,23.23
2019-03-02T08:55:18.326Z,22.73
2019-03-02T08:57:46.916Z,23.83
2019-03-02T09:00:26.412Z,23.60
2019-03-02T09:02:58.753Z,27.87
2019-03-02T09:05:42.980Z,24.53
2019-03-02T09:07:55.641Z,24.57
2019-03-02T09:10:24.295Z,22.70
2019-03-02T09:12:58.282Z,23.53
2019-03-02T09:15:26.252Z,25.70
2019-03-02T09:17:57.879Z,23.00
2019-03-02T09:20:25.713Z,21.43
2019-03-02T09:22:56.261Z,21.60
2019-03-02T09:25:27.973Z,21.17
2019-03-02T09:27:55.689Z,21.23
2019-03-02T09:30:24.408Z,20.03
2019-03-02T09:32:54.679Z,21.60
2019-03-02T09:35:23.210Z,20.93
2019-03-02T09:37:51.828Z,20.43
2019-03-02T09:40:24.073Z,19.57
2019-03-02T09:42:51.985Z,19.13
2019-03-02T09:45:21.426Z,18.63
2019-03-02T09:47:51.839Z,20.47
2019-03-02T09:50:24.611Z,20.00
2019-03-02T09:52:53.397Z,19.70
2019-03-02T09:55:22.007Z,19.10
2019-03-02T09:57:50.644Z,20.50
2019-03-02T10:00:26.265Z,20.30
2019-03-02T10:02:54.680Z,19.47
2019-03-02T10:05:23.431Z,22.07
2019-03-02T10:07:52.028Z,21.53
2019-03-02T10:10:20.949Z,19.40
2019-03-02T10:12:51.709Z,19.60
2019-03-02T10:15:25.748Z,18.90
2019-03-02T10:17:55.405Z,21.37
2019-03-02T10:20:24.159Z,21.47
2019-03-02T10:22:52.754Z,21.70
2019-03-02T10:25:21.213Z,22.90
2019-03-02T10:27:49.755Z,21.00
2019-03-02T10:30:25.941Z,20.30
2019-03-02T10:32:55.804Z,21.37
2019-03-02T10:35:23.826Z,22.17
2019-03-02T10:37:52.373Z,19.87
2019-03-02T10:40:23.207Z,19.42
2019-03-02T10:42:51.491Z,20.80
2019-03-02T10:45:21.913Z,22.17
2019-03-02T10:47:50.443Z,23.40
2019-03-02T10:50:25.111Z,21.57
2019-03-02T10:52:53.900Z,21.20
2019-03-02T10:55:23.612Z,20.60
2019-03-02T10:57:52.164Z,20.60
2019-03-02T11:00:29.385Z,19.73
2019-03-02T11:03:04.569Z,19.93
2019-03-02T11:05:37.500Z,20.00
2019-03-02T11:08:26.534Z,20.70
2019-03-02T11:11:13.124Z,18.93
2019-03-02T11:13:51.861Z,17.80
2019-03-02T11:16:29.975Z,17.13
2019-03-02T11:19:16.522Z,18.70
2019-03-02T11:22:02.883Z,16.77
2019-03-02T11:24:42.107Z,16.87
2019-03-02T11:27:13.052Z,18.03
2019-03-02T11:29:51.235Z,17.27
2019-03-02T11:32:24.149Z,17.45
2019-03-02T11:35:06.769Z,19.17
2019-03-02T11:37:57.963Z,18.57
2019-03-02T11:40:29.574Z,17.77
2019-03-02T11:43:00.900Z,17.40
2019-03-02T11:45:40.061Z,17.57
2019-03-02T11:48:17.316Z,19.80
2019-03-02T11:50:52.238Z,20.17
2019-03-02T11:53:24.076Z,19.70
2019-03-02T11:55:56.971Z,23.67
2019-03-02T11:58:42.451Z,23.97
2019-03-02T12:01:15.169Z,24.77
2019-03-02T12:03:45.341Z,21.93
2019-03-02T12:06:33.481Z,22.90
2019-03-02T12:09:09.061Z,23.77
2019-03-02T12:11:46.850Z,20.93
2019-03-02T12:14:26.418Z,21.67
2019-03-02T12:17:00.060Z,21.97
2019-03-02T12:19:34.880Z,21.97
2019-03-02T12:22:13.580Z,23.97
2019-03-02T12:24:43.681Z,22.93
2019-03-02T12:27:30.082Z,23.77
2019-03-02T12:30:16.268Z,20.23
2019-03-02T12:33:01.548Z,19.47
2019-03-02T12:35:34.495Z,20.03
2019-03-02T12:38:13.098Z,20.00
2019-03-02T12:40:46.001Z,22.73
2019-03-02T12:43:16.110Z,21.30
2019-03-02T12:45:46.272Z,22.33
2019-03-02T12:48:25.613Z,23.80
2019-03-02T12:51:12.050Z,23.57
2019-03-02T12:53:42.170Z,23.17
2019-03-02T12:56:29.139Z,24.20
2019-03-02T12:59:04.669Z,26.03
2019-03-02T13:01:37.736Z,25.33
2019-03-02T13:04:15.581Z,26.50
2019-03-02T13:06:46.380Z,27.70
2019-03-02T13:09:32.743Z,29.33
2019-03-02T13:12:12.319Z,29.37
2019-03-02T13:14:48.375Z,29.17
2019-03-02T13:17:25.297Z,28.70
2019-03-02T13:20:04.142Z,29.80
2019-03-02T13:22:37.075Z,29.20
2019-03-02T13:25:20.291Z,27.30
2019-03-02T13:27:50.582Z,25.03
2019-03-02T13:30:30.418Z,24.80
2019-03-02T13:33:12.865Z,25.90
2019-03-02T13:35:59.857Z,25.47
2019-03-02T13:38:29.978Z,26.63
2019-03-02T13:41:04.943Z,27.30
2019-03-02T13:43:52.174Z,26.80
2019-03-02T13:46:34.748Z,29.07
2019-03-02T13:49:22.633Z,27.90
2019-03-02T13:51:52.909Z,24.27
2019-03-02T13:54:26.055Z,36.70
2019-03-02T13:57:01.059Z,28.50
2019-03-02T13:59:33.265Z,25.97
2019-03-02T14:02:03.560Z,26.00
2019-03-02T14:04:42.854Z,27.57
2019-03-02T14:07:21.500Z,24.87
2019-03-02T14:09:51.723Z,25.10
2019-03-02T14:12:40.148Z,26.10
2019-03-02T14:15:10.861Z,26.77
2019-03-02T14:17:41.085Z,25.67
2019-03-02T14:20:11.279Z,26.17
2019-03-02T14:22:41.440Z,23.97
2019-03-02T14:25:26.786Z,24.47
2019-03-02T14:28:08.999Z,24.50
2019-03-02T14:30:39.178Z,23.57
2019-03-02T14:33:12.124Z,24.50
2019-03-02T14:35:53.218Z,23.73
2019-03-02T14:38:35.950Z,24.70
2019-03-02T14:41:15.029Z,25.70
2019-03-02T14:43:56.929Z,24.47
2019-03-02T14:46:25.503Z,25.07
2019-03-02T14:49:01.122Z,25.30
2019-03-02T14:51:31.286Z,24.37
2019-03-02T14:54:20.761Z,27.77
2019-03-02T14:56:49.713Z,27.07
2019-03-02T14:59:25.464Z,27.93
2019-03-02T15:01:58.516Z,27.73
2019-03-02T15:04:46.589Z,27.23
2019-03-02T15:07:23.336Z,27.27
2019-03-02T15:10:02.593Z,26.93
2019-03-02T15:12:52.458Z,25.50
2019-03-02T15:15:38.741Z,25.83
2019-03-02T15:18:17.678Z,26.03
2019-03-02T15:20:53.815Z,25.87
2019-03-02T15:23:40.130Z,25.53
2019-03-02T15:26:10.235Z,24.67
2019-03-02T15:28:43.162Z,25.10
2019-03-02T15:31:13.327Z,25.90
2019-03-02T15:33:43.430Z,27.30
2019-03-02T15:36:13.614Z,25.07
2019-03-02T15:38:46.753Z,26.97
2019-03-02T15:41:22.612Z,28.83
2019-03-02T15:43:59.687Z,30.67
2019-03-02T15:46:35.867Z,33.70
2019-03-02T15:49:05.153Z,29.90
2019-03-02T15:51:42.391Z,30.50
2019-03-02T15:54:12.730Z,30.40
2019-03-02T15:56:42.841Z,27.87
2019-03-02T15:59:12.987Z,28.73
2019-03-02T16:01:44.107Z,28.50
2019-03-02T16:04:14.437Z,29.80
2019-03-02T16:07:02.137Z,31.67
2019-03-02T16:09:35.606Z,30.17
2019-03-02T16:12:22.751Z,32.13
2019-03-02T16:14:52.864Z,31.40
2019-03-02T16:17:39.913Z,33.57
2019-03-02T16:20:18.151Z,37.20
2019-03-02T16:22:45.662Z,36.03
2019-03-02T16:25:15.905Z,33.90
2019-03-02T16:27:45.999Z,34.90
2019-03-02T16:30:19.925Z,33.47
2019-03-02T16:33:05.421Z,31.97
2019-03-02T16:35:52.234Z,32.77
2019-03-02T16:38:27.028Z,32.00
2019-03-02T16:41:13.348Z,30.93
2019-03-02T16:43:49.136Z,30.57
2019-03-02T16:46:35.096Z,33.07
2019-03-02T16:49:12.334Z,32.80
2019-03-02T16:51:48.218Z,34.00
2019-03-02T16:54:35.932Z,35.57
2019-03-02T16:57:18.317Z,37.63
2019-03-02T16:59:54.508Z,37.93
2019-03-02T17:02:24.737Z,38.30
2019-03-02T17:04:57.755Z,36.60
2019-03-02T17:07:39.707Z,35.37
2019-03-02T17:10:15.515Z,35.93
2019-03-02T17:12:46.864Z,35.27
2019-03-02T17:15:26.157Z,38.43
2019-03-02T17:18:12.640Z,36.37
2019-03-02T17:20:51.296Z,38.73
2019-03-02T17:23:27.064Z,39.57
2019-03-02T17:25:59.975Z,39.90
2019-03-02T17:28:31.598Z,39.23
2019-03-02T17:34:10.911Z,40.50
2019-03-02T17:36:41.772Z,41.27
2019-03-02T17:39:13.155Z,42.10
2019-03-02T17:41:55.048Z,42.70
2019-03-02T17:44:30.429Z,47.13
2019-03-02T17:47:11.888Z,47.00
2019-03-02T17:49:44.662Z,42.40
2019-03-02T17:52:32.523Z,38.80
2019-03-02T17:55:14.784Z,39.20
2019-03-02T17:57:54.453Z,39.37
2019-03-02T18:00:25.963Z,37.13
2019-03-02T18:03:04.840Z,39.57
2019-03-02T18:05:51.051Z,35.67
2019-03-02T18:08:23.194Z,38.90
2019-03-02T18:11:01.992Z,42.33
2019-03-02T18:13:48.654Z,44.23
2019-03-02T18:16:21.424Z,45.90
2019-03-02T18:18:49.926Z,49.37
2019-03-02T18:21:19.656Z,43.80
2019-03-02T18:23:48.306Z,42.50
2019-03-02T18:26:16.850Z,42.20
2019-03-02T18:28:46.987Z,41.43
2019-03-02T18:31:16.088Z,42.00
2019-03-02T18:33:48.675Z,42.47
2019-03-02T18:36:17.617Z,41.10
2019-03-02T18:38:48.894Z,43.00
2019-03-02T18:41:17.982Z,43.93
2019-03-02T18:43:46.920Z,44.73
2019-03-02T18:46:18.017Z,41.80
2019-03-02T18:48:56.806Z,41.53
2019-03-02T18:51:32.587Z,41.87
2019-03-02T18:54:13.258Z,41.00
2019-03-02T18:56:43.700Z,40.97
2019-03-02T18:59:12.326Z,43.10
2019-03-02T19:01:42.151Z,44.47
2019-03-02T19:04:10.853Z,41.50
2019-03-02T19:06:39.344Z,41.03
2019-03-02T19:09:09.842Z,43.77
2019-03-02T19:11:38.430Z,44.23
2019-03-02T19:14:07.039Z,45.63
2019-03-02T19:16:35.620Z,44.70
2019-03-02T19:19:04.169Z,43.70
2019-03-02T19:21:32.685Z,46.30
2019-03-02T19:24:01.298Z,48.07
2019-03-02T19:26:29.792Z,48.10
2019-03-02T19:28:58.264Z,48.33
2019-03-02T19:31:26.971Z,46.53
2019-03-02T19:33:55.492Z,47.27
2019-03-02T19:36:23.971Z,49.37
2019-03-02T19:38:52.572Z,50.83
2019-03-02T19:41:22.105Z,46.80
2019-03-02T19:43:50.658Z,46.53
2019-03-02T19:46:19.277Z,48.33
2019-03-02T19:48:47.745Z,49.83
2019-03-02T19:51:16.281Z,50.80
2019-03-02T19:53:44.832Z,51.70
2019-03-02T19:56:13.789Z,51.07
2019-03-02T19:58:42.349Z,49.17
2019-03-02T20:01:10.832Z,47.97
2019-03-02T20:03:39.395Z,49.17
2019-03-02T20:06:08.104Z,51.50
2019-03-02T20:08:36.813Z,51.40
2019-03-02T20:11:05.619Z,52.70
2019-03-02T20:13:34.766Z,48.00
2019-03-02T20:16:03.386Z,49.53
2019-03-02T20:18:32.157Z,54.87
2019-03-02T20:21:01.916Z,53.73
2019-03-02T20:23:37.189Z,52.37
2019-03-02T20:26:00.633Z,52.67
2019-03-02T20:28:29.202Z,55.53
2019-03-02T20:30:57.889Z,53.93
2019-03-02T20:33:26.435Z,52.07
2019-03-02T20:35:55.062Z,50.83
2019-03-02T20:38:23.581Z,50.03
2019-03-02T20:40:53.074Z,54.57
2019-03-02T20:43:21.668Z,57.17
2019-03-02T20:45:50.126Z,56.83
2019-03-02T20:48:18.693Z,58.00
2019-03-02T20:50:47.216Z,54.67
2019-03-02T20:53:15.949Z,56.13
2019-03-02T20:55:44.503Z,57.70
2019-03-02T20:58:13.280Z,55.87
2019-03-02T21:00:42.278Z,55.00
2019-03-02T21:03:10.774Z,50.53
2019-03-02T21:05:40.293Z,52.87
2019-03-02T21:08:08.948Z,53.17
2019-03-02T21:10:37.478Z,50.67
2019-03-02T21:13:06.874Z,50.70
2019-03-02T21:15:38.716Z,50.03
2019-03-02T21:18:07.622Z,51.87
2019-03-02T21:20:36.697Z,50.73
2019-03-02T21:23:05.807Z,48.40
2019-03-02T21:25:34.316Z,48.77
2019-03-02T21:28:02.961Z,42.40
2019-03-02T21:30:31.432Z,45.17
2019-03-02T21:32:59.961Z,46.90
2019-03-02T21:35:28.621Z,46.60
2019-03-02T21:37:58.007Z,48.37
2019-03-02T21:40:31.683Z,48.23
2019-03-02T21:43:00.225Z,51.50
2019-03-02T21:45:29.531Z,60.37
2019-03-02T21:47:58.313Z,61.13
2019-03-02T21:50:29.639Z,61.57
2019-03-02T21:52:58.265Z,59.77
2019-03-02T21:55:26.748Z,60.50
2019-03-02T21:57:55.420Z,66.13
2019-03-02T22:00:28.974Z,67.83
2019-03-02T22:02:57.505Z,62.53
2019-03-02T22:05:30.230Z,58.70
2019-03-02T22:07:58.663Z,66.47
2019-03-02T22:10:54.137Z,70.87
2019-03-02T22:13:22.775Z,60.67
2019-03-02T22:15:51.292Z,61.73
2019-03-02T22:18:19.837Z,68.40
2019-03-02T22:20:48.335Z,62.97
2019-03-02T22:23:17.789Z,60.43
2019-03-02T22:25:46.327Z,68.63
2019-03-02T22:28:14.998Z,47.30
2019-03-02T22:30:43.573Z,49.53
2019-03-02T22:33:12.153Z,56.33
2019-03-02T22:35:40.700Z,54.30
2019-03-02T22:38:09.163Z,48.67
2019-03-02T22:40:37.767Z,44.13
2019-03-02T22:43:06.271Z,43.80
2019-03-02T22:45:34.808Z,41.60
2019-03-02T22:48:03.325Z,42.90
2019-03-02T22:50:32.288Z,44.00
2019-03-02T22:53:00.822Z,44.57
2019-03-02T22:55:31.043Z,43.57
2019-03-02T22:57:59.703Z,43.80
2019-03-02T23:00:46.209Z,45.52
2019-03-02T23:03:13.582Z,44.50
2019-03-02T23:05:42.148Z,44.10
2019-03-02T23:08:10.676Z,44.23
2019-03-02T23:10:39.170Z,44.60
2019-03-02T23:13:07.643Z,44.60
2019-03-02T23:15:36.305Z,44.53
2019-03-02T23:18:04.848Z,47.73
2019-03-02T23:20:33.346Z,45.63
2019-03-02T23:23:01.880Z,44.00
2019-03-02T23:25:30.341Z,46.57
2019-03-02T23:27:58.830Z,45.80
2019-03-02T23:30:27.618Z,41.70
2019-03-02T23:32:56.111Z,44.57
2019-03-02T23:35:24.660Z,41.20
2019-03-02T23:37:53.244Z,40.50
2019-03-02T23:40:23.632Z,39.97
2019-03-02T23:42:52.173Z,39.90
2019-03-02T23:45:21.027Z,41.87
2019-03-02T23:47:49.484Z,40.07
2019-03-02T23:50:18.530Z,41.17
2019-03-02T23:52:47.170Z,41.53
2019-03-02T23:55:16.367Z,38.83
2019-03-02T23:57:44.915Z,39.83
